createdAt,value
2019-01-31T00:03:46.020Z,0.44
2019-01-31T00:09:10.642Z,0.41
2019-01-31T00:15:01.167Z,0.44
2019-01-31T00:20:50.414Z,0.53
2019-01-31T00:26:38.301Z,0.57
2019-01-31T00:32:01.796Z,0.59
2019-01-31T00:37:44.094Z,0.57
2019-01-31T00:43:14.428Z,0.54
2019-01-31T00:49:09.723Z,0.55
2019-01-31T00:54:47.765Z,0.52
2019-01-31T01:00:09.839Z,0.54
2019-01-31T01:05:27.497Z,0.52
2019-01-31T01:11:16.712Z,0.54
2019-01-31T01:16:37.976Z,0.51
2019-01-31T01:22:25.771Z,0.44
2019-01-31T01:28:12.803Z,0.41
2019-01-31T01:33:28.678Z,0.41
2019-01-31T01:39:21.640Z,0.42
2019-01-31T01:44:38.224Z,0.41
2019-01-31T01:49:50.419Z,0.42
2019-01-31T01:55:08.280Z,0.43
2019-01-31T02:00:48.028Z,0.42
2019-01-31T02:07:01.685Z,0.33
2019-01-31T02:12:59.291Z,0.28
2019-01-31T02:18:19.375Z,0.30
2019-01-31T02:24:05.527Z,0.31
2019-01-31T02:29:41.476Z,0.28
2019-01-31T02:35:19.118Z,0.20
2019-01-31T02:40:58.545Z,0.17
2019-01-31T02:46:56.217Z,0.05
2019-01-31T02:52:37.425Z,-0.03
2019-01-31T02:58:15.553Z,-0.08
2019-01-31T03:03:49.366Z,-0.16
2019-01-31T03:09:16.039Z,-0.24
2019-01-31T03:14:27.331Z,-0.30
2019-01-31T03:19:49.593Z,-0.35
2019-01-31T03:25:34.689Z,-0.31
2019-01-31T03:31:29.609Z,-0.32
2019-01-31T03:37:01.483Z,-0.36
2019-01-31T03:42:20.778Z,-0.43
2019-01-31T03:48:10.633Z,-0.51
2019-01-31T03:53:59.014Z,-0.53
2019-01-31T03:59:10.611Z,-0.55
2019-01-31T04:04:28.194Z,-0.54
2019-01-31T04:09:33.338Z,-0.53
2019-01-31T04:14:39.360Z,-0.50
2019-01-31T04:19:45.635Z,-0.49
2019-01-31T04:24:50.927Z,-0.46
2019-01-31T04:29:56.104Z,-0.42
2019-01-31T04:35:01.317Z,-0.43
2019-01-31T04:40:07.931Z,-0.45
2019-01-31T04:45:13.271Z,-0.46
2019-01-31T04:50:18.730Z,-0.54
2019-01-31T04:55:23.903Z,-0.64
2019-01-31T05:00:29.124Z,-0.73
2019-01-31T05:05:35.387Z,-0.83
2019-01-31T05:10:43.316Z,-0.93
2019-01-31T05:15:47.557Z,-1.01
2019-01-31T05:20:53.229Z,-1.08
2019-01-31T05:25:58.441Z,-1.15
2019-01-31T05:31:03.715Z,-1.20
2019-01-31T05:36:08.941Z,-1.25
2019-01-31T05:41:14.104Z,-1.33
2019-01-31T05:46:19.295Z,-1.40
2019-01-31T05:51:24.491Z,-1.47
2019-01-31T05:56:29.688Z,-1.62
2019-01-31T06:01:34.897Z,-1.73
2019-01-31T06:06:40.075Z,-1.72
2019-01-31T06:11:45.269Z,-1.71
2019-01-31T06:16:50.443Z,-1.74
2019-01-31T06:21:56.603Z,-1.80
2019-01-31T06:27:02.744Z,-1.86
2019-01-31T06:32:07.933Z,-1.91
2019-01-31T06:37:13.764Z,-1.93
2019-01-31T06:42:18.948Z,-1.95
2019-01-31T06:47:24.448Z,-1.93
2019-01-31T06:52:30.497Z,-1.96
2019-01-31T06:57:35.675Z,-2.05
2019-01-31T07:02:40.857Z,-2.15
2019-01-31T07:07:46.046Z,-2.22
2019-01-31T07:12:51.233Z,-2.33
2019-01-31T07:17:56.736Z,-2.35
2019-01-31T07:23:02.059Z,-2.32
2019-01-31T07:28:07.267Z,-2.35
2019-01-31T07:33:12.500Z,-2.32
2019-01-31T07:38:17.689Z,-2.25
2019-01-31T07:43:22.889Z,-2.22
2019-01-31T07:48:28.074Z,-2.16
2019-01-31T07:53:33.244Z,-2.11
2019-01-31T07:58:38.428Z,-2.03
2019-01-31T08:03:44.478Z,-2.00
2019-01-31T08:08:49.649Z,-1.97
2019-01-31T08:13:54.825Z,-1.91
2019-01-31T08:19:00.045Z,-1.81
2019-01-31T08:24:05.492Z,-1.70
2019-01-31T08:29:10.870Z,-1.56
2019-01-31T08:34:17.268Z,-1.45
2019-01-31T08:39:22.449Z,-1.28
2019-01-31T08:44:27.636Z,-1.11
2019-01-31T08:49:32.929Z,-0.93
2019-01-31T08:54:38.108Z,-0.75
2019-01-31T08:59:43.289Z,-0.67
2019-01-31T09:04:48.469Z,-0.54
2019-01-31T09:09:53.656Z,-0.42
2019-01-31T09:14:59.017Z,-0.33
2019-01-31T09:20:04.832Z,-0.18
2019-01-31T09:26:02.424Z,-0.10
2019-01-31T09:32:13.087Z,-0.04
2019-01-31T09:37:54.462Z,0.05
2019-01-31T09:43:17.419Z,0.23
2019-01-31T09:49:07.008Z,0.39
2019-01-31T09:54:33.565Z,0.46
2019-01-31T10:00:34.508Z,0.56
2019-01-31T10:06:25.767Z,0.72
2019-01-31T10:12:12.203Z,0.90
2019-01-31T10:18:04.804Z,1.08
2019-01-31T10:23:51.961Z,1.19
2019-01-31T10:29:36.741Z,1.29
2019-01-31T10:35:11.742Z,1.36
2019-01-31T10:40:53.412Z,1.41
2019-01-31T10:46:13.128Z,1.57
2019-01-31T10:51:42.736Z,1.79
2019-01-31T10:57:07.959Z,2.08
2019-01-31T11:02:55.500Z,2.23
2019-01-31T11:09:00.411Z,2.31
2019-01-31T11:14:41.044Z,2.37
2019-01-31T11:20:06.800Z,2.31
2019-01-31T11:25:55.166Z,2.15
2019-01-31T11:31:37.122Z,2.16
2019-01-31T11:37:22.122Z,2.29
2019-01-31T11:42:45.143Z,2.50
2019-01-31T11:48:17.374Z,2.63
2019-01-31T11:53:45.837Z,2.69
2019-01-31T11:59:02.455Z,2.66
2019-01-31T12:04:16.433Z,2.77
2019-01-31T12:09:22.592Z,2.82
2019-01-31T12:14:28.311Z,2.93
2019-01-31T12:19:33.456Z,2.96
2019-01-31T12:24:38.901Z,2.89
2019-01-31T12:29:44.071Z,2.72
2019-01-31T12:34:49.608Z,2.92
2019-01-31T12:39:54.796Z,2.79
2019-01-31T12:45:01.099Z,2.79
2019-01-31T12:50:07.503Z,3.03
2019-01-31T12:55:12.764Z,3.14
2019-01-31T13:00:26.920Z,3.31
2019-01-31T13:05:32.434Z,3.50
2019-01-31T13:10:37.606Z,3.69
2019-01-31T13:15:42.913Z,3.87
2019-01-31T13:20:48.522Z,4.13
2019-01-31T13:25:54.707Z,4.35
2019-01-31T13:31:00.302Z,4.49
2019-01-31T13:36:12.574Z,4.58
2019-01-31T13:41:17.760Z,4.87
2019-01-31T13:46:24.343Z,5.22
2019-01-31T13:51:29.640Z,5.12
2019-01-31T13:56:45.243Z,5.41
2019-01-31T14:01:41.692Z,5.44
2019-01-31T14:06:46.907Z,5.38
2019-01-31T14:11:53.194Z,5.44
2019-01-31T14:16:58.659Z,5.54
2019-01-31T14:22:03.937Z,5.49
2019-01-31T14:27:10.074Z,5.54
2019-01-31T14:32:17.220Z,5.54
2019-01-31T14:37:22.420Z,5.68
2019-01-31T14:42:27.590Z,5.54
2019-01-31T14:47:33.850Z,5.51
2019-01-31T14:52:39.062Z,5.37
2019-01-31T14:57:44.548Z,5.21
2019-01-31T15:02:51.032Z,4.99
2019-01-31T15:07:56.206Z,4.88
2019-01-31T15:13:01.374Z,4.92
2019-01-31T15:18:08.198Z,4.78
2019-01-31T15:23:13.375Z,4.37
2019-01-31T15:28:18.545Z,3.90
2019-01-31T15:33:23.717Z,3.25
2019-01-31T15:38:28.992Z,2.85
2019-01-31T15:43:34.166Z,2.49
2019-01-31T15:48:39.764Z,2.26
2019-01-31T15:53:44.960Z,2.08
2019-01-31T15:58:50.143Z,1.89
2019-01-31T16:03:55.669Z,1.66
2019-01-31T16:09:01.894Z,1.22
2019-01-31T16:14:07.682Z,1.21
2019-01-31T16:19:12.972Z,1.11
2019-01-31T16:24:18.599Z,0.98
2019-01-31T16:29:23.783Z,0.78
2019-01-31T16:34:29.270Z,0.60
2019-01-31T16:39:34.499Z,0.41
2019-01-31T16:44:39.849Z,0.31
2019-01-31T16:49:45.145Z,0.26
2019-01-31T16:54:50.383Z,0.23
2019-01-31T16:59:55.718Z,0.19
2019-01-31T17:05:00.900Z,0.08
2019-01-31T17:10:07.355Z,-0.05
2019-01-31T17:15:18.133Z,-0.15
2019-01-31T17:20:26.940Z,-0.22
2019-01-31T17:25:32.229Z,-0.21
2019-01-31T17:30:37.698Z,-0.24
2019-01-31T17:35:42.906Z,-0.32
2019-01-31T17:40:49.868Z,-0.38
2019-01-31T17:45:55.153Z,-0.48
2019-01-31T17:51:01.133Z,-0.49
2019-01-31T17:56:07.244Z,-0.51
2019-01-31T18:01:12.424Z,-0.55
2019-01-31T18:06:18.912Z,-0.65
2019-01-31T18:11:24.289Z,-0.79
2019-01-31T18:16:29.558Z,-0.88
2019-01-31T18:21:34.792Z,-0.86
2019-01-31T18:26:45.953Z,-0.89
2019-01-31T18:31:51.365Z,-0.92
2019-01-31T18:36:56.939Z,-0.96
2019-01-31T18:42:02.473Z,-1.00
2019-01-31T18:47:07.755Z,-1.05
2019-01-31T18:52:12.946Z,-1.09
2019-01-31T18:57:18.712Z,-1.14
2019-01-31T19:02:23.936Z,-1.19
2019-01-31T19:07:29.139Z,-1.21
2019-01-31T19:12:34.498Z,-1.26
2019-01-31T19:17:40.724Z,-1.30
2019-01-31T19:22:47.282Z,-1.37
2019-01-31T19:27:52.658Z,-1.33
2019-01-31T19:32:57.894Z,-1.36
2019-01-31T19:38:03.249Z,-1.40
2019-01-31T19:43:08.554Z,-1.41
2019-01-31T19:48:14.172Z,-1.44
2019-01-31T19:53:20.027Z,-1.47
2019-01-31T19:58:26.878Z,-1.52
2019-01-31T20:03:32.129Z,-1.57
2019-01-31T20:08:37.161Z,-1.63
2019-01-31T20:13:43.926Z,-1.70
2019-01-31T20:18:49.700Z,-1.77
2019-01-31T20:23:54.876Z,-1.80
2019-01-31T20:29:00.054Z,-1.79
2019-01-31T20:34:05.859Z,-1.83
2019-01-31T20:39:11.142Z,-1.89
2019-01-31T20:44:16.335Z,-1.91
2019-01-31T20:49:21.522Z,-1.98
2019-01-31T20:54:27.698Z,-2.03
2019-01-31T20:59:33.040Z,-2.08
2019-01-31T21:04:38.227Z,-2.10
2019-01-31T21:09:43.497Z,-2.11
2019-01-31T21:14:49.004Z,-2.12
2019-01-31T21:19:54.373Z,-2.11
2019-01-31T21:24:59.835Z,-2.10
2019-01-31T21:30:06.979Z,-2.13
2019-01-31T21:35:13.388Z,-2.16
2019-01-31T21:40:19.039Z,-2.17
2019-01-31T21:45:24.618Z,-2.19
2019-01-31T21:50:30.042Z,-2.15
2019-01-31T21:55:35.293Z,-2.19
2019-01-31T22:00:40.558Z,-2.27
2019-01-31T22:05:46.039Z,-2.37
2019-01-31T22:10:52.482Z,-2.42
2019-01-31T22:15:57.676Z,-2.49
2019-01-31T22:21:02.932Z,-2.55
2019-01-31T22:26:08.163Z,-2.61
2019-01-31T22:31:13.907Z,-2.63
2019-01-31T22:36:19.523Z,-2.62
2019-01-31T22:41:25.179Z,-2.56
2019-01-31T22:46:30.438Z,-2.58
2019-01-31T22:51:37.509Z,-2.64
2019-01-31T22:56:42.547Z,-2.69
2019-01-31T23:01:53.766Z,-2.72
2019-01-31T23:06:59.099Z,-2.75
2019-01-31T23:12:04.510Z,-2.79
2019-01-31T23:17:09.732Z,-2.84
2019-01-31T23:22:14.994Z,-2.88
2019-01-31T23:27:20.309Z,-2.90
2019-01-31T23:32:25.508Z,-2.86
2019-01-31T23:37:31.107Z,-2.90
2019-01-31T23:42:36.288Z,-2.92
2019-01-31T23:47:48.546Z,-2.90
2019-01-31T23:52:48.375Z,-2.83
2019-01-31T23:57:53.588Z,-2.85
